createdAt,value
2019-05-23T00:01:17.817Z,76.49
2019-05-23T00:03:50.301Z,76.90
2019-05-23T00:06:24.222Z,78.09
2019-05-23T00:08:55.517Z,78.68
2019-05-23T00:11:29.913Z,78.69
2019-05-23T00:14:01.942Z,78.33
2019-05-23T00:16:32.148Z,78.33
2019-05-23T00:19:02.963Z,77.78
2019-05-23T00:21:33.345Z,77.03
2019-05-23T00:24:04.485Z,77.52
2019-05-23T00:26:36.281Z,77.95
2019-05-23T00:29:10.463Z,77.85
2019-05-23T00:31:41.539Z,77.58
2019-05-23T00:34:11.654Z,77.14
2019-05-23T00:36:42.174Z,77.30
2019-05-23T00:39:13.559Z,77.08
2019-05-23T00:41:43.850Z,77.46
2019-05-23T00:44:13.828Z,77.57
2019-05-23T00:46:44.913Z,78.38
2019-05-23T00:49:16.597Z,78.16
2019-05-23T00:51:46.869Z,77.82
2019-05-23T00:54:19.177Z,78.29
2019-05-23T00:56:49.924Z,77.69
2019-05-23T00:59:26.957Z,76.97
2019-05-23T01:01:53.959Z,77.81
2019-05-23T01:04:24.661Z,77.72
2019-05-23T01:06:56.292Z,78.17
2019-05-23T01:09:27.732Z,78.23
2019-05-23T01:12:01.290Z,77.93
2019-05-23T01:14:31.576Z,78.64
2019-05-23T01:17:02.025Z,77.94
2019-05-23T01:19:37.138Z,78.33
2019-05-23T01:22:14.404Z,78.32
2019-05-23T01:24:51.792Z,77.98
2019-05-23T01:27:22.139Z,76.95
2019-05-23T01:29:52.546Z,77.53
2019-05-23T01:32:24.831Z,76.98
2019-05-23T01:34:57.049Z,77.27
2019-05-23T01:37:26.717Z,77.11
2019-05-23T01:39:57.502Z,77.04
2019-05-23T01:42:30.864Z,76.76
2019-05-23T01:45:03.618Z,76.50
2019-05-23T01:47:33.873Z,76.77
2019-05-23T01:50:04.690Z,76.68
2019-05-23T01:52:34.991Z,76.87
2019-05-23T01:55:06.522Z,76.74
2019-05-23T01:57:36.336Z,76.23
2019-05-23T02:00:11.447Z,76.13
2019-05-23T02:02:43.724Z,76.10
2019-05-23T02:05:14.472Z,76.87
2019-05-23T02:07:44.065Z,76.99
2019-05-23T02:10:14.317Z,76.01
2019-05-23T02:12:45.975Z,76.38
2019-05-23T02:15:16.921Z,76.09
2019-05-23T02:17:47.720Z,76.24
2019-05-23T02:20:20.413Z,76.35
2019-05-23T02:22:50.493Z,76.74
2019-05-23T02:25:21.886Z,77.50
2019-05-23T02:27:57.774Z,77.58
2019-05-23T02:30:34.560Z,77.52
2019-05-23T02:33:00.311Z,77.74
2019-05-23T02:35:29.941Z,77.99
2019-05-23T02:38:18.085Z,77.89
2019-05-23T02:40:49.689Z,77.43
2019-05-23T02:43:23.484Z,78.03
2019-05-23T02:46:01.083Z,77.88
2019-05-23T02:48:46.652Z,78.14
2019-05-23T02:51:26.497Z,78.72
2019-05-23T02:53:58.647Z,78.65
2019-05-23T02:56:34.648Z,78.88
2019-05-23T02:59:16.187Z,78.98
2019-05-23T03:02:35.797Z,81.23
2019-05-23T03:05:10.589Z,80.61
2019-05-23T03:07:40.769Z,80.90
2019-05-23T03:10:11.176Z,80.11
2019-05-23T03:12:43.925Z,79.40
2019-05-23T03:15:16.612Z,79.67
2019-05-23T03:17:51.826Z,80.74
2019-05-23T03:20:23.044Z,82.07
2019-05-23T03:23:06.339Z,82.34
2019-05-23T03:25:40.766Z,82.04
2019-05-23T03:28:14.168Z,81.76
2019-05-23T03:30:48.665Z,81.01
2019-05-23T03:33:19.199Z,81.44
2019-05-23T03:35:51.427Z,81.73
2019-05-23T03:38:22.152Z,80.66
2019-05-23T03:40:52.474Z,81.11
2019-05-23T03:43:22.736Z,80.02
2019-05-23T03:45:54.051Z,81.13
2019-05-23T03:48:24.397Z,80.83
2019-05-23T03:50:55.643Z,79.75
2019-05-23T03:53:32.177Z,79.48
2019-05-23T03:56:04.411Z,79.60
2019-05-23T03:58:38.016Z,79.95
2019-05-23T04:01:10.919Z,78.49
2019-05-23T04:03:42.765Z,79.66
2019-05-23T04:06:13.909Z,78.16
2019-05-23T04:08:43.567Z,76.63
2019-05-23T04:11:15.520Z,76.43
2019-05-23T04:13:45.372Z,77.37
2019-05-23T04:16:15.152Z,77.79
2019-05-23T04:18:44.838Z,77.65
2019-05-23T04:21:15.825Z,78.22
2019-05-23T04:23:45.886Z,76.07
2019-05-23T04:26:15.864Z,75.37
2019-05-23T04:28:45.360Z,76.34
2019-05-23T04:31:14.954Z,75.97
2019-05-23T04:33:45.913Z,76.38
2019-05-23T04:36:17.001Z,76.68
2019-05-23T04:38:47.364Z,76.16
2019-05-23T04:41:16.972Z,74.72
2019-05-23T04:43:46.554Z,75.08
2019-05-23T04:46:16.137Z,74.30
2019-05-23T04:48:47.839Z,74.29
2019-05-23T04:51:17.661Z,74.07
2019-05-23T04:53:47.549Z,74.15
2019-05-23T04:56:17.248Z,73.42
2019-05-23T04:58:48.064Z,73.04
2019-05-23T05:01:20.699Z,72.45
2019-05-23T05:03:52.874Z,72.00
2019-05-23T05:06:22.727Z,71.82
2019-05-23T05:08:55.698Z,71.83
2019-05-23T05:11:30.183Z,71.04
2019-05-23T05:13:57.339Z,71.75
2019-05-23T05:16:27.194Z,71.97
2019-05-23T05:18:56.966Z,71.56
2019-05-23T05:21:26.562Z,71.31
2019-05-23T05:23:56.157Z,71.37
2019-05-23T05:26:25.871Z,71.29
2019-05-23T05:28:56.202Z,70.41
2019-05-23T05:31:25.909Z,70.72
2019-05-23T05:33:56.473Z,70.21
2019-05-23T05:36:26.512Z,70.41
2019-05-23T05:38:56.327Z,69.79
2019-05-23T05:41:26.947Z,69.06
2019-05-23T05:43:56.848Z,68.59
2019-05-23T05:46:26.664Z,68.78
2019-05-23T05:48:57.851Z,68.78
2019-05-23T05:51:28.533Z,68.87
2019-05-23T05:53:59.056Z,68.26
2019-05-23T05:56:29.904Z,67.80
2019-05-23T05:58:59.489Z,67.81
2019-05-23T06:01:34.097Z,66.85
2019-05-23T06:04:01.734Z,66.96
2019-05-23T06:06:35.881Z,66.51
2019-05-23T06:09:12.438Z,65.54
2019-05-23T06:11:42.278Z,64.97
2019-05-23T06:14:12.091Z,64.56
2019-05-23T06:16:44.998Z,63.96
2019-05-23T06:19:15.240Z,64.15
2019-05-23T06:21:46.147Z,64.45
2019-05-23T06:24:16.746Z,63.54
2019-05-23T06:26:46.890Z,61.59
2019-05-23T06:29:16.621Z,60.83
2019-05-23T06:31:47.247Z,60.44
2019-05-23T06:34:17.849Z,60.03
2019-05-23T06:36:47.519Z,58.63
2019-05-23T06:39:18.105Z,57.42
2019-05-23T06:41:48.323Z,55.98
2019-05-23T06:44:19.924Z,53.99
2019-05-23T06:46:50.131Z,52.38
2019-05-23T06:49:19.749Z,52.50
2019-05-23T06:51:49.405Z,51.72
2019-05-23T06:54:19.111Z,50.14
2019-05-23T06:56:48.758Z,50.30
2019-05-23T06:59:18.853Z,49.62
2019-05-23T07:01:51.291Z,48.85
2019-05-23T07:04:22.666Z,48.33
2019-05-23T07:06:52.846Z,47.35
2019-05-23T07:09:23.424Z,46.53
2019-05-23T07:11:56.922Z,44.64
2019-05-23T07:14:27.932Z,44.52
2019-05-23T07:16:59.561Z,44.04
2019-05-23T07:19:29.332Z,43.76
2019-05-23T07:21:59.037Z,43.34
2019-05-23T07:24:29.250Z,44.07
2019-05-23T07:26:58.976Z,43.58
2019-05-23T07:29:31.478Z,42.85
2019-05-23T07:32:05.120Z,42.30
2019-05-23T07:34:35.766Z,42.46
2019-05-23T07:37:06.631Z,43.27
2019-05-23T07:39:36.755Z,42.94
2019-05-23T07:42:06.611Z,42.33
2019-05-23T07:44:47.953Z,41.88
2019-05-23T07:47:10.506Z,41.84
2019-05-23T07:49:40.303Z,43.25
2019-05-23T07:52:09.915Z,41.65
2019-05-23T07:54:49.830Z,41.27
2019-05-23T07:57:20.098Z,40.40
2019-05-23T07:59:50.070Z,40.51
2019-05-23T08:02:28.753Z,40.05
2019-05-23T08:04:59.125Z,39.47
2019-05-23T08:07:32.851Z,38.85
2019-05-23T08:10:02.012Z,39.42
2019-05-23T08:12:32.227Z,39.45
2019-05-23T08:15:01.881Z,39.86
2019-05-23T08:17:33.487Z,39.63
2019-05-23T08:20:03.299Z,38.58
2019-05-23T08:22:33.186Z,38.38
2019-05-23T08:25:02.767Z,38.20
2019-05-23T08:27:34.412Z,38.98
2019-05-23T08:30:07.626Z,38.06
2019-05-23T08:32:37.246Z,38.53
2019-05-23T08:35:08.231Z,38.29
2019-05-23T08:37:38.844Z,37.20
2019-05-23T08:40:10.720Z,37.06
2019-05-23T08:42:40.519Z,36.58
2019-05-23T08:45:11.784Z,37.40
2019-05-23T08:47:41.710Z,38.20
2019-05-23T08:50:12.506Z,37.39
2019-05-23T08:52:42.258Z,36.49
2019-05-23T08:55:21.666Z,36.01
2019-05-23T08:57:54.617Z,35.99
2019-05-23T09:00:29.706Z,35.89
2019-05-23T09:03:00.502Z,35.33
2019-05-23T09:05:31.989Z,34.37
2019-05-23T09:08:02.070Z,34.31
2019-05-23T09:10:35.994Z,34.51
2019-05-23T09:13:07.065Z,33.92
2019-05-23T09:15:37.563Z,32.75
2019-05-23T09:18:08.114Z,32.96
2019-05-23T09:20:38.381Z,32.79
2019-05-23T09:23:09.320Z,33.55
2019-05-23T09:25:40.007Z,34.08
2019-05-23T09:28:11.708Z,34.35
2019-05-23T09:30:41.371Z,33.32
2019-05-23T09:33:11.795Z,33.69
2019-05-23T09:35:41.830Z,33.30
2019-05-23T09:38:13.327Z,32.54
2019-05-23T09:40:44.092Z,31.74
2019-05-23T09:43:14.070Z,31.24
2019-05-23T09:45:43.791Z,31.03
2019-05-23T09:48:20.646Z,32.16
2019-05-23T09:50:50.154Z,32.27
2019-05-23T09:53:19.766Z,32.61
2019-05-23T09:55:51.292Z,31.28
2019-05-23T09:58:20.914Z,31.12
2019-05-23T10:00:50.742Z,30.52
2019-05-23T10:03:21.107Z,30.62
2019-05-23T10:05:51.800Z,31.17
2019-05-23T10:08:21.778Z,31.75
2019-05-23T10:10:53.164Z,30.19
2019-05-23T10:13:38.620Z,29.97
2019-05-23T10:16:03.058Z,29.91
2019-05-23T10:18:33.121Z,30.23
2019-05-23T10:21:02.833Z,29.55
2019-05-23T10:23:34.092Z,29.49
2019-05-23T10:26:03.963Z,29.21
2019-05-23T10:28:33.760Z,28.54
2019-05-23T10:31:07.311Z,28.69
2019-05-23T10:33:37.040Z,28.44
2019-05-23T10:36:08.912Z,28.45
2019-05-23T10:38:41.593Z,29.91
2019-05-23T10:41:11.257Z,29.44
2019-05-23T10:43:41.071Z,29.04
2019-05-23T10:46:12.080Z,29.21
2019-05-23T10:48:42.044Z,29.55
2019-05-23T10:51:12.029Z,30.16
2019-05-23T10:53:45.902Z,29.30
2019-05-23T10:56:20.376Z,29.90
2019-05-23T10:58:48.193Z,29.37
2019-05-23T11:01:21.279Z,28.10
2019-05-23T11:03:51.132Z,27.21
2019-05-23T11:06:21.810Z,27.06
2019-05-23T11:08:51.586Z,27.13
2019-05-23T11:11:21.703Z,27.54
2019-05-23T11:13:51.655Z,28.19
2019-05-23T11:16:26.077Z,28.71
2019-05-23T11:18:55.742Z,28.45
2019-05-23T11:21:25.953Z,28.91
2019-05-23T11:23:56.451Z,28.02
2019-05-23T11:26:26.112Z,29.20
2019-05-23T11:28:57.367Z,30.59
2019-05-23T11:31:31.708Z,27.82
2019-05-23T11:34:03.340Z,27.67
2019-05-23T11:36:36.039Z,28.70
2019-05-23T11:39:05.778Z,28.29
2019-05-23T11:41:38.710Z,27.89
2019-05-23T11:44:08.386Z,28.78
2019-05-23T11:46:42.008Z,28.04
2019-05-23T11:49:11.984Z,26.65
2019-05-23T11:51:43.363Z,26.42
2019-05-23T11:54:13.092Z,26.14
2019-05-23T11:56:43.228Z,25.37
2019-05-23T11:59:13.520Z,25.09
2019-05-23T12:01:51.389Z,25.09
2019-05-23T12:04:22.196Z,24.63
2019-05-23T12:07:03.818Z,25.58
2019-05-23T12:09:33.767Z,25.99
2019-05-23T12:12:03.717Z,26.86
2019-05-23T12:14:33.985Z,25.97
2019-05-23T12:17:05.466Z,26.79
2019-05-23T12:19:35.982Z,26.05
2019-05-23T12:22:06.148Z,25.81
2019-05-23T12:24:36.710Z,26.27
2019-05-23T12:27:06.818Z,26.55
2019-05-23T12:29:38.963Z,24.69
2019-05-23T12:32:10.891Z,24.32
2019-05-23T12:34:40.504Z,23.29
2019-05-23T12:37:19.180Z,23.37
2019-05-23T12:39:43.810Z,24.25
2019-05-23T12:42:13.465Z,24.83
2019-05-23T12:44:43.299Z,25.32
2019-05-23T12:47:14.673Z,25.92
2019-05-23T12:49:46.059Z,25.50
2019-05-23T12:52:16.922Z,25.33
2019-05-23T12:54:47.128Z,24.69
2019-05-23T12:57:16.784Z,24.71
2019-05-23T12:59:47.106Z,23.80
2019-05-23T13:02:18.496Z,24.83
2019-05-23T13:04:48.468Z,25.44
2019-05-23T13:07:34.620Z,25.34
2019-05-23T13:09:50.609Z,25.55
2019-05-23T13:12:21.318Z,25.42
2019-05-23T13:14:53.506Z,25.21
2019-05-23T13:17:22.309Z,23.55
2019-05-23T13:19:52.109Z,24.26
2019-05-23T13:22:22.891Z,24.88
2019-05-23T13:24:53.545Z,24.58
2019-05-23T13:27:23.445Z,24.43
2019-05-23T13:29:53.400Z,24.91
2019-05-23T13:32:23.132Z,24.88
2019-05-23T13:34:52.673Z,24.15
2019-05-23T13:37:24.007Z,24.29
2019-05-23T13:39:53.780Z,25.32
2019-05-23T13:42:23.790Z,25.88
2019-05-23T13:44:53.751Z,24.95
2019-05-23T13:47:23.814Z,24.01
2019-05-23T13:49:53.840Z,23.38
2019-05-23T13:52:23.580Z,23.80
2019-05-23T13:54:53.633Z,24.02
2019-05-23T13:57:23.366Z,25.17
2019-05-23T13:59:53.993Z,25.77
2019-05-23T14:02:24.154Z,25.18
2019-05-23T14:04:54.258Z,24.76
2019-05-23T14:07:25.753Z,24.50
2019-05-23T14:09:55.471Z,24.33
2019-05-23T14:12:26.033Z,24.24
2019-05-23T14:14:57.926Z,24.25
2019-05-23T14:17:27.410Z,22.93
2019-05-23T14:19:57.257Z,22.73
2019-05-23T14:22:27.690Z,22.43
2019-05-23T14:24:57.439Z,22.41
2019-05-23T14:27:40.898Z,22.25
2019-05-23T14:30:18.816Z,22.77
2019-05-23T14:32:52.921Z,23.07
2019-05-23T14:35:24.201Z,22.72
2019-05-23T14:37:55.468Z,23.59
2019-05-23T14:40:27.948Z,23.66
2019-05-23T14:42:59.345Z,23.62
2019-05-23T14:45:43.956Z,23.10
2019-05-23T14:48:31.488Z,23.50
2019-05-23T14:51:06.688Z,23.54
2019-05-23T14:53:43.636Z,24.04
2019-05-23T14:56:14.622Z,23.84
2019-05-23T14:58:45.103Z,23.43
2019-05-23T15:01:15.653Z,23.38
2019-05-23T15:03:46.032Z,23.03
2019-05-23T15:06:15.826Z,22.77
2019-05-23T15:08:51.157Z,23.25
2019-05-23T15:11:17.338Z,23.78
2019-05-23T15:13:47.253Z,24.89
2019-05-23T15:16:17.423Z,24.63
2019-05-23T15:18:48.632Z,24.34
2019-05-23T15:21:18.579Z,23.89
2019-05-23T15:23:48.175Z,23.66
2019-05-23T15:26:22.821Z,23.97
2019-05-23T15:28:49.209Z,23.67
2019-05-23T15:31:19.840Z,23.48
2019-05-23T15:33:53.023Z,23.33
2019-05-23T15:36:22.661Z,23.61
2019-05-23T15:39:08.141Z,24.24
2019-05-23T15:41:23.857Z,24.01
2019-05-23T15:43:53.504Z,24.39
2019-05-23T15:46:23.748Z,24.85
2019-05-23T15:48:54.371Z,25.04
2019-05-23T15:51:28.770Z,25.59
2019-05-23T15:54:08.873Z,25.29
2019-05-23T15:56:40.135Z,25.80
2019-05-23T15:59:14.948Z,25.46
2019-05-23T16:01:46.577Z,25.48
2019-05-23T16:04:24.289Z,25.38
2019-05-23T16:06:55.055Z,25.33
2019-05-23T16:09:29.948Z,25.72
2019-05-23T16:11:59.097Z,25.63
2019-05-23T16:14:29.096Z,25.35
2019-05-23T16:16:58.823Z,25.94
2019-05-23T16:19:31.440Z,26.12
2019-05-23T16:22:02.386Z,26.16
2019-05-23T16:24:32.039Z,26.43
2019-05-23T16:27:06.044Z,26.40
2019-05-23T16:29:37.159Z,26.51
2019-05-23T16:32:06.894Z,26.80
2019-05-23T16:34:38.791Z,26.68
2019-05-23T16:37:10.031Z,26.76
2019-05-23T16:39:47.406Z,26.80
2019-05-23T16:42:13.375Z,27.03
2019-05-23T16:44:42.962Z,26.91
2019-05-23T16:47:12.597Z,26.11
2019-05-23T16:49:42.497Z,26.78
2019-05-23T16:52:12.377Z,27.11
2019-05-23T16:54:43.981Z,27.78
2019-05-23T16:57:30.722Z,27.74
2019-05-23T17:00:20.790Z,27.00
2019-05-23T17:02:51.062Z,26.92
2019-05-23T17:05:26.670Z,27.15
2019-05-23T17:08:04.079Z,27.44
2019-05-23T17:10:36.496Z,27.04
2019-05-23T17:13:12.297Z,27.63
2019-05-23T17:15:49.466Z,27.18
2019-05-23T17:18:36.737Z,26.99
2019-05-23T17:21:08.090Z,27.08
2019-05-23T17:23:39.485Z,27.47
2019-05-23T17:26:20.707Z,27.13
2019-05-23T17:28:52.000Z,27.02
2019-05-23T17:31:25.639Z,28.09
2019-05-23T17:33:59.159Z,27.13
2019-05-23T17:36:28.855Z,27.40
2019-05-23T17:38:58.685Z,27.98
2019-05-23T17:41:30.752Z,27.90
2019-05-23T17:44:00.595Z,27.65
2019-05-23T17:46:30.495Z,27.73
2019-05-23T17:49:00.175Z,28.53
2019-05-23T17:51:30.480Z,28.84
2019-05-23T17:54:00.224Z,29.14
2019-05-23T17:56:33.686Z,29.76
2019-05-23T17:59:03.425Z,29.54
2019-05-23T18:01:33.592Z,29.65
2019-05-23T18:04:06.218Z,29.84
2019-05-23T18:06:36.150Z,29.50
2019-05-23T18:09:09.907Z,29.17
2019-05-23T18:11:39.842Z,29.16
2019-05-23T18:14:10.865Z,29.53
2019-05-23T18:16:42.968Z,29.80
2019-05-23T18:19:12.751Z,29.96
2019-05-23T18:21:44.411Z,30.14
2019-05-23T18:24:15.013Z,30.14
2019-05-23T18:26:44.790Z,30.47
2019-05-23T18:29:14.991Z,30.28
2019-05-23T18:31:47.117Z,30.23
2019-05-23T18:34:16.828Z,30.29
2019-05-23T18:36:46.701Z,30.21
2019-05-23T18:39:17.459Z,30.70
2019-05-23T18:41:47.119Z,31.39
2019-05-23T18:44:17.963Z,31.21
2019-05-23T18:46:55.094Z,31.15
2019-05-23T18:49:26.161Z,31.86
2019-05-23T18:51:56.197Z,31.40
2019-05-23T18:54:25.970Z,31.54
2019-05-23T18:56:56.166Z,31.58
2019-05-23T18:59:26.041Z,31.85
2019-05-23T19:01:58.454Z,31.64
2019-05-23T19:04:28.513Z,31.47
2019-05-23T19:06:58.242Z,31.66
2019-05-23T19:09:28.304Z,31.85
2019-05-23T19:11:59.043Z,31.97
2019-05-23T19:14:28.720Z,31.98
2019-05-23T19:17:02.033Z,32.15
2019-05-23T19:19:32.910Z,32.24
2019-05-23T19:22:04.469Z,32.56
2019-05-23T19:24:34.933Z,33.06
2019-05-23T19:27:06.389Z,33.12
2019-05-23T19:29:36.355Z,33.48
2019-05-23T19:32:07.414Z,33.94
2019-05-23T19:34:37.281Z,34.51
2019-05-23T19:37:09.028Z,34.67
2019-05-23T19:39:40.030Z,35.22
2019-05-23T19:42:10.524Z,35.80
2019-05-23T19:44:40.711Z,36.24
2019-05-23T19:47:11.576Z,36.35
2019-05-23T19:49:41.272Z,36.69
2019-05-23T19:52:12.643Z,36.91
2019-05-23T19:54:42.886Z,37.98
2019-05-23T19:57:12.505Z,38.49
2019-05-23T19:59:42.194Z,39.12
2019-05-23T20:02:16.195Z,39.42
2019-05-23T20:04:53.639Z,39.76
2019-05-23T20:07:23.877Z,40.26
2019-05-23T20:09:55.515Z,40.76
2019-05-23T20:12:27.931Z,41.49
2019-05-23T20:14:57.746Z,41.59
2019-05-23T20:17:27.626Z,41.69
2019-05-23T20:19:57.611Z,41.80
2019-05-23T20:22:28.701Z,42.23
2019-05-23T20:24:59.618Z,42.64
2019-05-23T20:27:29.509Z,43.01
2019-05-23T20:29:59.240Z,43.00
2019-05-23T20:32:28.885Z,43.53
2019-05-23T20:34:58.550Z,43.79
2019-05-23T20:37:30.392Z,43.83
2019-05-23T20:40:00.207Z,44.06
2019-05-23T20:42:30.337Z,44.39
2019-05-23T20:45:00.414Z,44.68
2019-05-23T20:47:31.246Z,45.20
2019-05-23T20:50:01.436Z,45.23
2019-05-23T20:52:31.895Z,45.58
2019-05-23T20:55:01.830Z,45.84
2019-05-23T20:57:31.932Z,46.25
2019-05-23T21:00:01.911Z,46.24
2019-05-23T21:02:31.815Z,46.49
2019-05-23T21:05:01.746Z,47.52
2019-05-23T21:07:32.404Z,47.21
2019-05-23T21:10:02.110Z,47.26
2019-05-23T21:12:32.337Z,47.70
2019-05-23T21:15:02.205Z,48.14
2019-05-23T21:17:33.917Z,48.54
2019-05-23T21:20:04.383Z,48.07
2019-05-23T21:22:39.741Z,48.00
2019-05-23T21:25:09.568Z,48.31
2019-05-23T21:27:39.180Z,48.87
2019-05-23T21:30:10.673Z,49.08
2019-05-23T21:32:40.405Z,49.18
2019-05-23T21:35:10.075Z,49.35
2019-05-23T21:37:39.951Z,49.65
2019-05-23T21:40:33.733Z,50.07
2019-05-23T21:43:03.414Z,50.42
2019-05-23T21:45:33.123Z,50.59
2019-05-23T21:48:03.036Z,50.85
2019-05-23T21:50:33.075Z,51.06
2019-05-23T21:53:03.493Z,51.66
2019-05-23T21:55:42.364Z,51.42
2019-05-23T21:58:17.323Z,51.56
2019-05-23T22:01:06.615Z,52.55
2019-05-23T22:03:39.379Z,52.04
2019-05-23T22:06:13.779Z,52.77
2019-05-23T22:08:45.966Z,53.25
2019-05-23T22:11:16.165Z,53.63
2019-05-23T22:13:49.876Z,54.26
2019-05-23T22:16:19.541Z,54.00
2019-05-23T22:18:49.208Z,54.68
2019-05-23T22:21:19.099Z,54.47
2019-05-23T22:23:49.153Z,54.03
2019-05-23T22:26:21.820Z,54.22
2019-05-23T22:28:54.147Z,54.08
2019-05-23T22:31:24.736Z,54.65
2019-05-23T22:33:58.911Z,54.40
2019-05-23T22:36:28.587Z,53.84
2019-05-23T22:38:58.196Z,54.22
2019-05-23T22:41:28.380Z,54.35
2019-05-23T22:43:58.033Z,54.32
2019-05-23T22:46:29.408Z,54.88
2019-05-23T22:49:01.387Z,54.47
2019-05-23T22:51:31.593Z,54.52
2019-05-23T22:54:01.218Z,53.85
2019-05-23T22:56:30.941Z,54.19
2019-05-23T22:59:00.543Z,53.99
2019-05-23T23:01:31.638Z,53.95
2019-05-23T23:04:01.260Z,54.19
2019-05-23T23:06:31.391Z,54.26
2019-05-23T23:09:03.157Z,54.21
2019-05-23T23:11:34.715Z,54.57
2019-05-23T23:14:04.451Z,54.58
2019-05-23T23:16:34.328Z,54.47
2019-05-23T23:19:04.011Z,54.54
2019-05-23T23:21:33.610Z,54.79
2019-05-23T23:24:03.128Z,55.02
2019-05-23T23:26:32.700Z,54.40
2019-05-23T23:29:03.510Z,54.90
2019-05-23T23:31:33.520Z,54.62
2019-05-23T23:34:06.124Z,53.93
2019-05-23T23:36:35.979Z,54.11
2019-05-23T23:39:07.500Z,54.42
2019-05-23T23:41:37.210Z,54.33
2019-05-23T23:44:08.983Z,54.50
2019-05-23T23:46:56.632Z,54.61
2019-05-23T23:49:44.253Z,54.87
2019-05-23T23:52:31.906Z,55.02
2019-05-23T23:55:19.150Z,54.73
2019-05-23T23:58:00.023Z,54.15
